Terminal Aerodrome Forecast
Issued by NWS

Home | Current Version | Previous Version | Text Only | Print | Product List | Glossary On
Versions: 1 2 3 4 5 6 7 8 9 10 11 12 13 14 15 16 17 18 19 20 21 22 23 24 25 26 27 28 29 30 31 32
000
FTUS43 KDDC 171210 AAA
TAFHYS
TAF AMD
KHYS 171210Z 1712/1812 10009KT P6SM OVC006
     FM172200 14012KT P6SM BKN025
     FM180000 12011KT P6SM OVC007
      TEMPO 1800/1803 P6SM -RA OVC007=

USA.gov is the U.S. government's official web portal to all federal, state and local government web resources and services.